EGTE/EXT METAR and TAF weather

Enter ICAO airport designator
Station Type Date Time Source
EGTE METAR 2022/01/29 10:50 UTC NOAA

EGTE 291050Z 28015G25KT 9999 FEW007 SCT015 12/09 Q1032


Station Type Date Time Source
EGTE Decoded METAR 2022/01/29 10:50 UTC NOAA

Exeter Airport, United Kingdom (EGTE) 50-44N 003-25W
Jan 29, 2022 - 05:50 AM EST / 2022.01.29 1050 UTC
Wind: from the W (280 degrees) at 17 MPH (15 KT) gusting to 29 MPH (25 KT):0
Visibility: greater than 7 mile(s):0
Sky conditions: partly cloudy
Temperature: 53 F (12 C)
Dew Point: 48 F (9 C)
Relative Humidity: 81%
Pressure (altimeter): 30.47 in. Hg (1032 hPa)
ob: EGTE 291050Z 28015G25KT 9999 FEW007 SCT015 12/09 Q1032
cycle: 11

Station Type Date Time Source
EGTE TAF 2012/04/19 12:15 UTC NOAA

TAF TAF EGTE 191401Z 1912/1924 31016KT 9999 SCT030 SCT035 PROB40
TEMPO 1915/1918 7000 SHRA BKN014

Example: see airport list